sensor_id;sensor_type;location;lat;lon;timestamp;P1;durP1;ratioP1;P2;durP2;ratioP2
41635;SDS011;27623;51.966;4.602;2023-07-29T00:00:17;7.20;;;1.40;;
41635;SDS011;27623;51.966;4.602;2023-07-29T00:03:45;3.10;;;1.10;;
41635;SDS011;27623;51.966;4.602;2023-07-29T00:07:09;3.65;;;1.20;;
41635;SDS011;27623;51.966;4.602;2023-07-29T00:10:35;4.43;;;1.17;;
41635;SDS011;27623;51.966;4.602;2023-07-29T00:14:00;6.18;;;1.55;;
41635;SDS011;27623;51.966;4.602;2023-07-29T00:17:26;3.03;;;1.20;;
41635;SDS011;27623;51.966;4.602;2023-07-29T00:20:50;5.90;;;1.30;;
41635;SDS011;27623;51.966;4.602;2023-07-29T00:24:14;8.95;;;1.33;;
41635;SDS011;27623;51.966;4.602;2023-07-29T00:27:38;4.47;;;1.40;;
41635;SDS011;27623;51.966;4.602;2023-07-29T00:31:02;4.63;;;1.50;;
41635;SDS011;27623;51.966;4.602;2023-07-29T00:34:26;4.35;;;1.70;;
41635;SDS011;27623;51.966;4.602;2023-07-29T00:37:50;5.53;;;1.80;;
41635;SDS011;27623;51.966;4.602;2023-07-29T00:41:13;5.15;;;1.60;;
41635;SDS011;27623;51.966;4.602;2023-07-29T00:44:38;5.63;;;2.10;;
41635;SDS011;27623;51.966;4.602;2023-07-29T00:48:02;5.38;;;1.67;;
41635;SDS011;27623;51.966;4.602;2023-07-29T00:51:26;8.57;;;2.40;;
41635;SDS011;27623;51.966;4.602;2023-07-29T00:54:53;5.30;;;2.28;;
41635;SDS011;27623;51.966;4.602;2023-07-29T00:58:17;4.88;;;2.25;;
41635;SDS011;27623;51.966;4.602;2023-07-29T01:01:40;7.85;;;2.35;;
41635;SDS011;27623;51.966;4.602;2023-07-29T01:05:05;6.03;;;2.80;;
41635;SDS011;27623;51.966;4.602;2023-07-29T01:08:31;8.55;;;2.20;;
41635;SDS011;27623;51.966;4.602;2023-07-29T01:12:20;9.15;;;2.78;;
41635;SDS011;27623;51.966;4.602;2023-07-29T01:16:00;8.27;;;1.92;;
41635;SDS011;27623;51.966;4.602;2023-07-29T01:23:11;7.10;;;1.95;;
41635;SDS011;27623;51.966;4.602;2023-07-29T01:26:34;4.25;;;1.77;;
41635;SDS011;27623;51.966;4.602;2023-07-29T01:30:00;6.30;;;1.80;;
41635;SDS011;27623;51.966;4.602;2023-07-29T01:33:33;6.15;;;1.63;;
41635;SDS011;27623;51.966;4.602;2023-07-29T01:37:04;5.18;;;1.40;;
41635;SDS011;27623;51.966;4.602;2023-07-29T01:40:34;3.47;;;1.30;;
41635;SDS011;27623;51.966;4.602;2023-07-29T01:44:01;3.50;;;1.20;;
41635;SDS011;27623;51.966;4.602;2023-07-29T01:47:25;3.15;;;1.60;;
41635;SDS011;27623;51.966;4.602;2023-07-29T01:50:50;3.63;;;1.30;;
41635;SDS011;27623;51.966;4.602;2023-07-29T01:54:13;4.95;;;1.20;;
41635;SDS011;27623;51.966;4.602;2023-07-29T01:57:37;5.05;;;1.48;;
41635;SDS011;27623;51.966;4.602;2023-07-29T02:01:01;4.03;;;1.23;;
41635;SDS011;27623;51.966;4.602;2023-07-29T02:04:25;2.75;;;1.35;;
41635;SDS011;27623;51.966;4.602;2023-07-29T02:11:13;3.65;;;1.52;;
41635;SDS011;27623;51.966;4.602;2023-07-29T02:14:37;3.25;;;1.45;;
41635;SDS011;27623;51.966;4.602;2023-07-29T02:17:43;4.10;;;1.30;;
41635;SDS011;27623;51.966;4.602;2023-07-29T02:21:07;3.35;;;1.45;;
41635;SDS011;27623;51.966;4.602;2023-07-29T02:23:48;6.13;;;1.60;;
41635;SDS011;27623;51.966;4.602;2023-07-29T02:27:11;5.47;;;1.58;;
41635;SDS011;27623;51.966;4.602;2023-07-29T02:30:36;6.68;;;1.92;;
41635;SDS011;27623;51.966;4.602;2023-07-29T02:34:01;3.72;;;1.52;;
41635;SDS011;27623;51.966;4.602;2023-07-29T02:36:58;3.03;;;1.13;;
41635;SDS011;27623;51.966;4.602;2023-07-29T02:40:24;3.38;;;1.42;;
41635;SDS011;27623;51.966;4.602;2023-07-29T02:43:48;5.20;;;1.55;;
41635;SDS011;27623;51.966;4.602;2023-07-29T02:47:13;3.45;;;1.23;;
41635;SDS011;27623;51.966;4.602;2023-07-29T02:49:40;3.90;;;1.63;;
41635;SDS011;27623;51.966;4.602;2023-07-29T02:52:08;3.90;;;1.40;;
41635;SDS011;27623;51.966;4.602;2023-07-29T02:54:35;4.05;;;1.45;;
41635;SDS011;27623;51.966;4.602;2023-07-29T02:57:59;4.50;;;1.42;;
41635;SDS011;27623;51.966;4.602;2023-07-29T03:01:23;6.10;;;1.80;;
41635;SDS011;27623;51.966;4.602;2023-07-29T03:04:47;3.38;;;1.45;;
41635;SDS011;27623;51.966;4.602;2023-07-29T03:08:11;3.20;;;1.42;;
41635;SDS011;27623;51.966;4.602;2023-07-29T03:11:37;3.20;;;1.23;;
41635;SDS011;27623;51.966;4.602;2023-07-29T03:15:01;5.63;;;2.67;;
41635;SDS011;27623;51.966;4.602;2023-07-29T03:17:29;3.55;;;1.70;;
41635;SDS011;27623;51.966;4.602;2023-07-29T03:20:05;5.78;;;1.60;;
41635;SDS011;27623;51.966;4.602;2023-07-29T03:23:30;5.15;;;1.63;;
41635;SDS011;27623;51.966;4.602;2023-07-29T03:26:54;4.35;;;1.60;;
41635;SDS011;27623;51.966;4.602;2023-07-29T03:30:21;5.03;;;1.60;;
41635;SDS011;27623;51.966;4.602;2023-07-29T03:32:49;4.55;;;1.35;;
41635;SDS011;27623;51.966;4.602;2023-07-29T03:36:13;3.10;;;1.70;;
41635;SDS011;27623;51.966;4.602;2023-07-29T03:38:41;4.45;;;1.80;;
41635;SDS011;27623;51.966;4.602;2023-07-29T03:42:07;3.20;;;1.52;;
41635;SDS011;27623;51.966;4.602;2023-07-29T03:48:56;5.82;;;1.55;;
41635;SDS011;27623;51.966;4.602;2023-07-29T03:52:19;3.38;;;1.50;;
41635;SDS011;27623;51.966;4.602;2023-07-29T03:55:45;4.97;;;1.75;;
41635;SDS011;27623;51.966;4.602;2023-07-29T03:59:09;7.90;;;1.80;;
41635;SDS011;27623;51.966;4.602;2023-07-29T04:02:36;4.60;;;1.75;;
41635;SDS011;27623;51.966;4.602;2023-07-29T04:05:25;6.05;;;2.00;;
41635;SDS011;27623;51.966;4.602;2023-07-29T04:08:08;4.78;;;2.30;;
41635;SDS011;27623;51.966;4.602;2023-07-29T04:11:12;7.03;;;2.30;;
41635;SDS011;27623;51.966;4.602;2023-07-29T04:14:36;6.15;;;2.28;;
41635;SDS011;27623;51.966;4.602;2023-07-29T04:18:02;5.82;;;2.20;;
41635;SDS011;27623;51.966;4.602;2023-07-29T04:21:26;4.95;;;1.90;;
41635;SDS011;27623;51.966;4.602;2023-07-29T04:24:42;6.75;;;2.40;;
41635;SDS011;27623;51.966;4.602;2023-07-29T04:28:06;6.97;;;2.80;;
41635;SDS011;27623;51.966;4.602;2023-07-29T04:30:43;4.45;;;2.55;;
41635;SDS011;27623;51.966;4.602;2023-07-29T04:33:29;8.63;;;2.80;;
41635;SDS011;27623;51.966;4.602;2023-07-29T04:35:58;7.15;;;3.10;;
41635;SDS011;27623;51.966;4.602;2023-07-29T04:39:12;9.70;;;3.45;;
41635;SDS011;27623;51.966;4.602;2023-07-29T04:42:36;11.02;;;3.75;;
41635;SDS011;27623;51.966;4.602;2023-07-29T04:46:00;9.15;;;2.92;;
41635;SDS011;27623;51.966;4.602;2023-07-29T04:49:23;8.77;;;3.17;;
41635;SDS011;27623;51.966;4.602;2023-07-29T04:52:47;6.95;;;2.78;;
41635;SDS011;27623;51.966;4.602;2023-07-29T04:55:13;9.20;;;3.10;;
41635;SDS011;27623;51.966;4.602;2023-07-29T04:58:37;5.22;;;2.60;;
41635;SDS011;27623;51.966;4.602;2023-07-29T05:01:02;8.05;;;3.05;;
41635;SDS011;27623;51.966;4.602;2023-07-29T05:04:26;7.22;;;3.15;;
41635;SDS011;27623;51.966;4.602;2023-07-29T05:07:50;6.25;;;2.60;;
41635;SDS011;27623;51.966;4.602;2023-07-29T05:10:16;5.85;;;3.33;;
41635;SDS011;27623;51.966;4.602;2023-07-29T05:12:54;8.32;;;3.10;;
41635;SDS011;27623;51.966;4.602;2023-07-29T05:15:21;10.75;;;3.88;;
41635;SDS011;27623;51.966;4.602;2023-07-29T05:18:33;7.28;;;3.53;;
41635;SDS011;27623;51.966;4.602;2023-07-29T05:21:59;6.60;;;3.38;;
41635;SDS011;27623;51.966;4.602;2023-07-29T05:24:31;9.90;;;3.35;;
41635;SDS011;27623;51.966;4.602;2023-07-29T05:27:55;7.38;;;3.47;;
41635;SDS011;27623;51.966;4.602;2023-07-29T05:30:22;12.80;;;4.45;;
41635;SDS011;27623;51.966;4.602;2023-07-29T05:33:49;7.95;;;3.03;;
41635;SDS011;27623;51.966;4.602;2023-07-29T05:36:18;7.53;;;3.60;;
41635;SDS011;27623;51.966;4.602;2023-07-29T05:39:42;10.18;;;3.40;;
41635;SDS011;27623;51.966;4.602;2023-07-29T05:43:08;8.10;;;3.22;;
41635;SDS011;27623;51.966;4.602;2023-07-29T05:46:31;10.07;;;3.53;;
41635;SDS011;27623;51.966;4.602;2023-07-29T05:49:55;8.07;;;3.15;;
41635;SDS011;27623;51.966;4.602;2023-07-29T05:53:19;5.53;;;2.75;;
41635;SDS011;27623;51.966;4.602;2023-07-29T05:55:53;7.53;;;3.47;;
41635;SDS011;27623;51.966;4.602;2023-07-29T05:58:40;8.68;;;3.42;;
41635;SDS011;27623;51.966;4.602;2023-07-29T06:02:04;9.57;;;3.22;;
41635;SDS011;27623;51.966;4.602;2023-07-29T06:05:31;9.02;;;3.10;;
41635;SDS011;27623;51.966;4.602;2023-07-29T06:08:55;6.30;;;3.13;;
41635;SDS011;27623;51.966;4.602;2023-07-29T06:11:20;9.43;;;2.97;;
41635;SDS011;27623;51.966;4.602;2023-07-29T06:14:13;9.35;;;2.97;;
41635;SDS011;27623;51.966;4.602;2023-07-29T06:16:55;8.32;;;3.45;;
41635;SDS011;27623;51.966;4.602;2023-07-29T06:20:22;7.38;;;2.95;;
41635;SDS011;27623;51.966;4.602;2023-07-29T06:22:58;6.68;;;3.17;;
41635;SDS011;27623;51.966;4.602;2023-07-29T06:26:22;6.45;;;2.67;;
41635;SDS011;27623;51.966;4.602;2023-07-29T06:29:48;6.20;;;2.92;;
41635;SDS011;27623;51.966;4.602;2023-07-29T06:33:12;8.20;;;3.10;;
41635;SDS011;27623;51.966;4.602;2023-07-29T06:36:36;6.35;;;2.45;;
41635;SDS011;27623;51.966;4.602;2023-07-29T06:40:00;6.18;;;2.45;;
41635;SDS011;27623;51.966;4.602;2023-07-29T06:42:28;6.13;;;2.50;;
41635;SDS011;27623;51.966;4.602;2023-07-29T06:45:02;8.65;;;2.40;;
41635;SDS011;27623;51.966;4.602;2023-07-29T06:48:26;6.88;;;2.60;;
41635;SDS011;27623;51.966;4.602;2023-07-29T06:51:17;6.25;;;2.17;;
41635;SDS011;27623;51.966;4.602;2023-07-29T06:53:45;6.18;;;1.95;;
41635;SDS011;27623;51.966;4.602;2023-07-29T06:56:12;8.35;;;2.63;;
41635;SDS011;27623;51.966;4.602;2023-07-29T06:58:38;7.47;;;2.65;;
41635;SDS011;27623;51.966;4.602;2023-07-29T07:01:23;5.25;;;2.53;;
41635;SDS011;27623;51.966;4.602;2023-07-29T07:03:48;4.10;;;2.38;;
41635;SDS011;27623;51.966;4.602;2023-07-29T07:07:12;6.05;;;2.40;;
41635;SDS011;27623;51.966;4.602;2023-07-29T07:09:38;7.07;;;2.15;;
41635;SDS011;27623;51.966;4.602;2023-07-29T07:12:04;7.38;;;2.28;;
41635;SDS011;27623;51.966;4.602;2023-07-29T07:14:48;5.70;;;2.03;;
41635;SDS011;27623;51.966;4.602;2023-07-29T07:17:14;2.95;;;1.90;;
41635;SDS011;27623;51.966;4.602;2023-07-29T07:20:38;4.35;;;1.77;;
41635;SDS011;27623;51.966;4.602;2023-07-29T07:24:02;6.50;;;2.50;;
41635;SDS011;27623;51.966;4.602;2023-07-29T07:27:26;8.20;;;2.55;;
41635;SDS011;27623;51.966;4.602;2023-07-29T07:30:05;7.35;;;1.98;;
41635;SDS011;27623;51.966;4.602;2023-07-29T07:33:29;5.75;;;2.75;;
41635;SDS011;27623;51.966;4.602;2023-07-29T07:36:11;8.18;;;2.60;;
41635;SDS011;27623;51.966;4.602;2023-07-29T07:39:19;4.82;;;2.53;;
41635;SDS011;27623;51.966;4.602;2023-07-29T07:41:56;9.57;;;2.50;;
41635;SDS011;27623;51.966;4.602;2023-07-29T07:45:20;5.07;;;1.83;;
41635;SDS011;27623;51.966;4.602;2023-07-29T07:47:56;7.47;;;1.98;;
41635;SDS011;27623;51.966;4.602;2023-07-29T07:50:22;5.03;;;2.30;;
41635;SDS011;27623;51.966;4.602;2023-07-29T07:52:52;9.48;;;2.28;;
41635;SDS011;27623;51.966;4.602;2023-07-29T07:55:18;5.65;;;2.00;;
41635;SDS011;27623;51.966;4.602;2023-07-29T07:58:11;5.65;;;2.13;;
41635;SDS011;27623;51.966;4.602;2023-07-29T08:01:05;7.10;;;2.47;;
41635;SDS011;27623;51.966;4.602;2023-07-29T08:03:51;6.50;;;1.98;;
41635;SDS011;27623;51.966;4.602;2023-07-29T08:06:23;6.00;;;1.65;;
41635;SDS011;27623;51.966;4.602;2023-07-29T08:08:49;4.78;;;1.85;;
41635;SDS011;27623;51.966;4.602;2023-07-29T08:11:15;5.40;;;2.78;;
41635;SDS011;27623;51.966;4.602;2023-07-29T08:13:40;7.10;;;2.30;;
41635;SDS011;27623;51.966;4.602;2023-07-29T08:16:08;5.22;;;1.90;;
41635;SDS011;27623;51.966;4.602;2023-07-29T08:18:34;5.40;;;2.67;;
41635;SDS011;27623;51.966;4.602;2023-07-29T08:20:59;4.65;;;2.13;;
41635;SDS011;27623;51.966;4.602;2023-07-29T08:23:29;8.93;;;2.35;;
41635;SDS011;27623;51.966;4.602;2023-07-29T08:25:56;5.55;;;1.85;;
41635;SDS011;27623;51.966;4.602;2023-07-29T08:28:26;4.88;;;1.80;;
41635;SDS011;27623;51.966;4.602;2023-07-29T08:30:53;6.63;;;2.03;;
41635;SDS011;27623;51.966;4.602;2023-07-29T08:33:19;4.43;;;1.90;;
41635;SDS011;27623;51.966;4.602;2023-07-29T08:35:44;6.20;;;2.60;;
41635;SDS011;27623;51.966;4.602;2023-07-29T08:38:09;6.07;;;2.35;;
41635;SDS011;27623;51.966;4.602;2023-07-29T08:40:39;5.28;;;2.60;;
41635;SDS011;27623;51.966;4.602;2023-07-29T08:43:08;7.25;;;3.08;;
41635;SDS011;27623;51.966;4.602;2023-07-29T08:45:36;6.63;;;2.97;;
41635;SDS011;27623;51.966;4.602;2023-07-29T08:48:07;4.93;;;2.58;;
41635;SDS011;27623;51.966;4.602;2023-07-29T08:50:33;9.52;;;2.38;;
41635;SDS011;27623;51.966;4.602;2023-07-29T08:53:01;4.78;;;2.55;;
41635;SDS011;27623;51.966;4.602;2023-07-29T08:55:28;5.13;;;2.42;;
41635;SDS011;27623;51.966;4.602;2023-07-29T08:57:54;7.55;;;2.42;;
41635;SDS011;27623;51.966;4.602;2023-07-29T09:00:21;5.63;;;2.92;;
41635;SDS011;27623;51.966;4.602;2023-07-29T09:02:47;6.88;;;3.00;;
41635;SDS011;27623;51.966;4.602;2023-07-29T09:05:12;4.55;;;2.38;;
41635;SDS011;27623;51.966;4.602;2023-07-29T09:07:37;6.53;;;3.40;;
41635;SDS011;27623;51.966;4.602;2023-07-29T09:10:04;4.70;;;2.35;;
41635;SDS011;27623;51.966;4.602;2023-07-29T09:12:29;7.35;;;2.50;;
41635;SDS011;27623;51.966;4.602;2023-07-29T09:14:55;4.75;;;2.53;;
41635;SDS011;27623;51.966;4.602;2023-07-29T09:17:23;3.45;;;2.20;;
41635;SDS011;27623;51.966;4.602;2023-07-29T09:19:51;3.67;;;2.30;;
41635;SDS011;27623;51.966;4.602;2023-07-29T09:22:17;5.82;;;2.25;;
41635;SDS011;27623;51.966;4.602;2023-07-29T09:24:44;4.68;;;2.50;;
41635;SDS011;27623;51.966;4.602;2023-07-29T09:27:12;4.20;;;1.90;;
41635;SDS011;27623;51.966;4.602;2023-07-29T09:29:48;4.70;;;2.15;;
41635;SDS011;27623;51.966;4.602;2023-07-29T09:32:17;4.28;;;2.38;;
41635;SDS011;27623;51.966;4.602;2023-07-29T09:34:46;7.93;;;2.60;;
41635;SDS011;27623;51.966;4.602;2023-07-29T09:37:18;4.75;;;2.30;;
41635;SDS011;27623;51.966;4.602;2023-07-29T09:39:47;4.65;;;2.40;;
41635;SDS011;27623;51.966;4.602;2023-07-29T09:42:19;4.68;;;2.42;;
41635;SDS011;27623;51.966;4.602;2023-07-29T09:44:46;7.47;;;2.60;;
41635;SDS011;27623;51.966;4.602;2023-07-29T09:47:23;4.53;;;2.10;;
41635;SDS011;27623;51.966;4.602;2023-07-29T09:49:50;7.05;;;1.98;;
41635;SDS011;27623;51.966;4.602;2023-07-29T09:52:16;4.85;;;2.22;;
41635;SDS011;27623;51.966;4.602;2023-07-29T09:54:43;3.95;;;1.90;;
41635;SDS011;27623;51.966;4.602;2023-07-29T09:57:10;4.72;;;1.88;;
41635;SDS011;27623;51.966;4.602;2023-07-29T09:59:37;2.65;;;1.65;;
41635;SDS011;27623;51.966;4.602;2023-07-29T10:02:02;5.20;;;1.38;;
41635;SDS011;27623;51.966;4.602;2023-07-29T10:04:29;4.20;;;1.20;;
41635;SDS011;27623;51.966;4.602;2023-07-29T10:06:56;4.70;;;1.65;;
41635;SDS011;27623;51.966;4.602;2023-07-29T10:09:24;2.60;;;1.10;;
41635;SDS011;27623;51.966;4.602;2023-07-29T10:11:53;1.75;;;0.80;;
41635;SDS011;27623;51.966;4.602;2023-07-29T10:14:20;2.47;;;0.80;;
41635;SDS011;27623;51.966;4.602;2023-07-29T10:16:45;1.38;;;0.70;;
41635;SDS011;27623;51.966;4.602;2023-07-29T10:19:11;3.42;;;0.73;;
41635;SDS011;27623;51.966;4.602;2023-07-29T10:21:39;2.00;;;0.73;;
41635;SDS011;27623;51.966;4.602;2023-07-29T10:24:11;3.50;;;0.70;;
41635;SDS011;27623;51.966;4.602;2023-07-29T10:26:43;2.55;;;0.70;;
41635;SDS011;27623;51.966;4.602;2023-07-29T10:29:12;1.88;;;0.70;;
41635;SDS011;27623;51.966;4.602;2023-07-29T10:31:40;2.70;;;0.82;;
41635;SDS011;27623;51.966;4.602;2023-07-29T10:34:08;1.85;;;1.27;;
41635;SDS011;27623;51.966;4.602;2023-07-29T10:36:34;4.60;;;1.25;;
41635;SDS011;27623;51.966;4.602;2023-07-29T10:39:56;2.55;;;1.13;;
41635;SDS011;27623;51.966;4.602;2023-07-29T10:42:24;3.95;;;1.10;;
41635;SDS011;27623;51.966;4.602;2023-07-29T10:44:51;3.90;;;1.55;;
41635;SDS011;27623;51.966;4.602;2023-07-29T10:49:53;3.90;;;1.17;;
41635;SDS011;27623;51.966;4.602;2023-07-29T10:55:00;3.55;;;1.50;;
41635;SDS011;27623;51.966;4.602;2023-07-29T10:57:35;3.03;;;1.63;;
41635;SDS011;27623;51.966;4.602;2023-07-29T11:00:12;5.50;;;1.50;;
41635;SDS011;27623;51.966;4.602;2023-07-29T11:02:41;6.43;;;1.60;;
41635;SDS011;27623;51.966;4.602;2023-07-29T11:05:16;3.35;;;1.70;;
41635;SDS011;27623;51.966;4.602;2023-07-29T11:17:53;2.50;;;1.67;;
41635;SDS011;27623;51.966;4.602;2023-07-29T11:20:59;10.50;;;2.83;;
41635;SDS011;27623;51.966;4.602;2023-07-29T11:23:35;4.72;;;1.60;;
41635;SDS011;27623;51.966;4.602;2023-07-29T11:26:11;3.65;;;1.63;;
41635;SDS011;27623;51.966;4.602;2023-07-29T11:28:40;4.00;;;2.00;;
41635;SDS011;27623;51.966;4.602;2023-07-29T11:31:39;2.85;;;1.10;;
41635;SDS011;27623;51.966;4.602;2023-07-29T11:34:06;3.25;;;1.23;;
41635;SDS011;27623;51.966;4.602;2023-07-29T11:36:43;3.38;;;1.42;;
41635;SDS011;27623;51.966;4.602;2023-07-29T11:39:10;4.40;;;1.40;;
41635;SDS011;27623;51.966;4.602;2023-07-29T11:41:36;1.80;;;1.02;;
41635;SDS011;27623;51.966;4.602;2023-07-29T11:44:02;4.00;;;1.30;;
41635;SDS011;27623;51.966;4.602;2023-07-29T11:46:27;3.75;;;1.40;;
41635;SDS011;27623;51.966;4.602;2023-07-29T11:48:55;2.88;;;1.70;;
41635;SDS011;27623;51.966;4.602;2023-07-29T11:51:20;2.40;;;1.40;;
41635;SDS011;27623;51.966;4.602;2023-07-29T11:53:46;2.70;;;1.63;;
41635;SDS011;27623;51.966;4.602;2023-07-29T11:56:12;2.85;;;2.08;;
41635;SDS011;27623;51.966;4.602;2023-07-29T11:58:38;3.30;;;1.70;;
41635;SDS011;27623;51.966;4.602;2023-07-29T12:01:06;5.18;;;1.90;;
41635;SDS011;27623;51.966;4.602;2023-07-29T12:03:32;4.05;;;2.10;;
41635;SDS011;27623;51.966;4.602;2023-07-29T12:06:00;3.55;;;2.38;;
41635;SDS011;27623;51.966;4.602;2023-07-29T12:08:26;5.43;;;3.22;;
41635;SDS011;27623;51.966;4.602;2023-07-29T12:10:52;3.65;;;2.30;;
41635;SDS011;27623;51.966;4.602;2023-07-29T12:13:18;5.15;;;2.53;;
41635;SDS011;27623;51.966;4.602;2023-07-29T12:15:46;5.28;;;2.45;;
41635;SDS011;27623;51.966;4.602;2023-07-29T12:18:11;4.82;;;2.65;;
41635;SDS011;27623;51.966;4.602;2023-07-29T12:20:39;4.75;;;2.05;;
41635;SDS011;27623;51.966;4.602;2023-07-29T12:23:05;3.55;;;2.05;;
41635;SDS011;27623;51.966;4.602;2023-07-29T12:25:32;2.72;;;1.60;;
41635;SDS011;27623;51.966;4.602;2023-07-29T12:28:04;3.47;;;1.90;;
41635;SDS011;27623;51.966;4.602;2023-07-29T12:30:31;6.80;;;1.83;;
41635;SDS011;27623;51.966;4.602;2023-07-29T12:32:56;5.88;;;1.80;;
41635;SDS011;27623;51.966;4.602;2023-07-29T12:35:24;4.03;;;1.60;;
41635;SDS011;27623;51.966;4.602;2023-07-29T12:37:58;3.85;;;2.10;;
41635;SDS011;27623;51.966;4.602;2023-07-29T12:40:25;3.33;;;1.83;;
41635;SDS011;27623;51.966;4.602;2023-07-29T12:42:51;4.18;;;1.80;;
41635;SDS011;27623;51.966;4.602;2023-07-29T12:45:16;3.70;;;2.55;;
41635;SDS011;27623;51.966;4.602;2023-07-29T12:47:43;3.47;;;1.60;;
41635;SDS011;27623;51.966;4.602;2023-07-29T12:50:08;3.40;;;1.30;;
41635;SDS011;27623;51.966;4.602;2023-07-29T12:52:36;1.92;;;1.02;;
41635;SDS011;27623;51.966;4.602;2023-07-29T12:55:02;3.05;;;1.10;;
41635;SDS011;27623;51.966;4.602;2023-07-29T12:57:28;2.05;;;0.90;;
41635;SDS011;27623;51.966;4.602;2023-07-29T12:59:53;2.50;;;1.00;;
41635;SDS011;27623;51.966;4.602;2023-07-29T13:02:18;4.90;;;1.10;;
41635;SDS011;27623;51.966;4.602;2023-07-29T13:04:46;3.78;;;0.93;;
41635;SDS011;27623;51.966;4.602;2023-07-29T13:07:14;5.68;;;1.10;;
41635;SDS011;27623;51.966;4.602;2023-07-29T13:09:39;4.40;;;1.38;;
41635;SDS011;27623;51.966;4.602;2023-07-29T13:12:05;4.95;;;1.10;;
41635;SDS011;27623;51.966;4.602;2023-07-29T13:14:30;3.45;;;1.00;;
41635;SDS011;27623;51.966;4.602;2023-07-29T13:16:55;1.95;;;0.90;;
41635;SDS011;27623;51.966;4.602;2023-07-29T13:19:21;4.70;;;1.08;;
41635;SDS011;27623;51.966;4.602;2023-07-29T13:21:46;2.15;;;1.00;;
41635;SDS011;27623;51.966;4.602;2023-07-29T13:24:11;3.53;;;0.90;;
41635;SDS011;27623;51.966;4.602;2023-07-29T13:26:37;3.15;;;1.20;;
41635;SDS011;27623;51.966;4.602;2023-07-29T13:29:04;4.60;;;1.65;;
41635;SDS011;27623;51.966;4.602;2023-07-29T13:31:29;4.47;;;1.17;;
41635;SDS011;27623;51.966;4.602;2023-07-29T13:33:55;2.58;;;0.80;;
41635;SDS011;27623;51.966;4.602;2023-07-29T13:36:21;4.18;;;0.95;;
41635;SDS011;27623;51.966;4.602;2023-07-29T13:38:46;4.40;;;1.08;;
41635;SDS011;27623;51.966;4.602;2023-07-29T13:41:11;2.47;;;0.85;;
41635;SDS011;27623;51.966;4.602;2023-07-29T13:43:37;2.92;;;0.75;;
41635;SDS011;27623;51.966;4.602;2023-07-29T13:46:02;2.25;;;1.00;;
41635;SDS011;27623;51.966;4.602;2023-07-29T13:48:27;2.10;;;0.82;;
41635;SDS011;27623;51.966;4.602;2023-07-29T13:50:53;4.28;;;1.20;;
41635;SDS011;27623;51.966;4.602;2023-07-29T13:53:18;3.92;;;1.10;;
41635;SDS011;27623;51.966;4.602;2023-07-29T13:55:46;3.30;;;0.80;;
41635;SDS011;27623;51.966;4.602;2023-07-29T13:58:12;3.97;;;1.02;;
41635;SDS011;27623;51.966;4.602;2023-07-29T14:00:37;2.38;;;0.85;;
41635;SDS011;27623;51.966;4.602;2023-07-29T14:03:03;4.03;;;1.30;;
41635;SDS011;27623;51.966;4.602;2023-07-29T14:05:28;2.65;;;1.00;;
41635;SDS011;27623;51.966;4.602;2023-07-29T14:07:53;4.05;;;0.85;;
41635;SDS011;27623;51.966;4.602;2023-07-29T14:10:19;2.70;;;0.90;;
41635;SDS011;27623;51.966;4.602;2023-07-29T14:12:44;2.75;;;0.88;;
41635;SDS011;27623;51.966;4.602;2023-07-29T14:15:09;2.75;;;0.90;;
41635;SDS011;27623;51.966;4.602;2023-07-29T14:17:35;2.08;;;0.80;;
41635;SDS011;27623;51.966;4.602;2023-07-29T14:20:00;1.63;;;0.90;;
41635;SDS011;27623;51.966;4.602;2023-07-29T14:22:26;3.22;;;0.80;;
41635;SDS011;27623;51.966;4.602;2023-07-29T14:24:51;6.10;;;0.95;;
41635;SDS011;27623;51.966;4.602;2023-07-29T14:27:16;1.83;;;0.70;;
41635;SDS011;27623;51.966;4.602;2023-07-29T14:29:42;6.10;;;1.88;;
41635;SDS011;27623;51.966;4.602;2023-07-29T14:32:07;3.25;;;1.00;;
41635;SDS011;27623;51.966;4.602;2023-07-29T14:34:35;3.58;;;1.20;;
41635;SDS011;27623;51.966;4.602;2023-07-29T14:37:00;2.67;;;0.90;;
41635;SDS011;27623;51.966;4.602;2023-07-29T14:39:26;5.15;;;1.10;;
41635;SDS011;27623;51.966;4.602;2023-07-29T14:41:51;3.10;;;1.35;;
41635;SDS011;27623;51.966;4.602;2023-07-29T14:44:16;5.32;;;1.40;;
41635;SDS011;27623;51.966;4.602;2023-07-29T14:47:16;8.95;;;1.30;;
41635;SDS011;27623;51.966;4.602;2023-07-29T14:49:42;8.88;;;1.73;;
41635;SDS011;27623;51.966;4.602;2023-07-29T14:52:23;2.85;;;1.60;;
41635;SDS011;27623;51.966;4.602;2023-07-29T14:54:48;3.25;;;1.20;;
41635;SDS011;27623;51.966;4.602;2023-07-29T14:57:30;4.28;;;1.30;;
41635;SDS011;27623;51.966;4.602;2023-07-29T14:59:55;2.55;;;1.10;;
41635;SDS011;27623;51.966;4.602;2023-07-29T15:02:21;5.18;;;1.20;;
41635;SDS011;27623;51.966;4.602;2023-07-29T15:04:47;3.22;;;1.25;;
41635;SDS011;27623;51.966;4.602;2023-07-29T15:07:13;2.22;;;0.90;;
41635;SDS011;27623;51.966;4.602;2023-07-29T15:09:39;3.55;;;1.08;;
41635;SDS011;27623;51.966;4.602;2023-07-29T15:12:05;3.30;;;1.38;;
41635;SDS011;27623;51.966;4.602;2023-07-29T15:15:28;3.00;;;1.48;;
41635;SDS011;27623;51.966;4.602;2023-07-29T15:17:59;6.10;;;1.55;;
41635;SDS011;27623;51.966;4.602;2023-07-29T15:20:25;4.38;;;1.60;;
41635;SDS011;27623;51.966;4.602;2023-07-29T15:22:55;3.42;;;1.20;;
41635;SDS011;27623;51.966;4.602;2023-07-29T15:25:25;4.32;;;1.10;;
41635;SDS011;27623;51.966;4.602;2023-07-29T15:27:51;8.27;;;1.60;;
41635;SDS011;27623;51.966;4.602;2023-07-29T15:30:23;5.05;;;1.58;;
41635;SDS011;27623;51.966;4.602;2023-07-29T15:32:53;4.35;;;1.50;;
41635;SDS011;27623;51.966;4.602;2023-07-29T15:35:21;2.55;;;0.98;;
41635;SDS011;27623;51.966;4.602;2023-07-29T15:37:49;4.50;;;1.00;;
41635;SDS011;27623;51.966;4.602;2023-07-29T15:40:14;1.90;;;0.75;;
41635;SDS011;27623;51.966;4.602;2023-07-29T15:42:40;3.08;;;0.70;;
41635;SDS011;27623;51.966;4.602;2023-07-29T15:45:05;1.90;;;0.80;;
41635;SDS011;27623;51.966;4.602;2023-07-29T15:47:31;2.25;;;1.00;;
41635;SDS011;27623;51.966;4.602;2023-07-29T15:49:57;3.42;;;1.00;;
41635;SDS011;27623;51.966;4.602;2023-07-29T15:52:22;3.05;;;0.90;;
41635;SDS011;27623;51.966;4.602;2023-07-29T15:54:47;3.03;;;1.13;;
41635;SDS011;27623;51.966;4.602;2023-07-29T15:57:14;2.83;;;1.25;;
41635;SDS011;27623;51.966;4.602;2023-07-29T15:59:42;2.47;;;1.05;;
41635;SDS011;27623;51.966;4.602;2023-07-29T16:02:07;3.47;;;1.20;;
41635;SDS011;27623;51.966;4.602;2023-07-29T16:04:33;2.00;;;1.10;;
41635;SDS011;27623;51.966;4.602;2023-07-29T16:06:59;2.67;;;1.17;;
41635;SDS011;27623;51.966;4.602;2023-07-29T16:09:24;5.00;;;1.20;;
41635;SDS011;27623;51.966;4.602;2023-07-29T16:11:49;4.65;;;1.30;;
41635;SDS011;27623;51.966;4.602;2023-07-29T16:14:15;2.47;;;1.10;;
41635;SDS011;27623;51.966;4.602;2023-07-29T16:17:09;3.45;;;1.20;;
41635;SDS011;27623;51.966;4.602;2023-07-29T16:19:39;3.97;;;1.20;;
41635;SDS011;27623;51.966;4.602;2023-07-29T16:22:17;6.40;;;1.50;;
41635;SDS011;27623;51.966;4.602;2023-07-29T16:24:42;5.03;;;1.42;;
41635;SDS011;27623;51.966;4.602;2023-07-29T16:27:08;4.47;;;1.23;;
41635;SDS011;27623;51.966;4.602;2023-07-29T16:29:33;3.92;;;1.05;;
41635;SDS011;27623;51.966;4.602;2023-07-29T16:31:58;3.15;;;1.02;;
41635;SDS011;27623;51.966;4.602;2023-07-29T16:34:24;3.00;;;1.40;;
41635;SDS011;27623;51.966;4.602;2023-07-29T16:36:49;7.47;;;1.35;;
41635;SDS011;27623;51.966;4.602;2023-07-29T16:39:14;6.43;;;1.75;;
41635;SDS011;27623;51.966;4.602;2023-07-29T16:41:40;4.25;;;1.35;;
41635;SDS011;27623;51.966;4.602;2023-07-29T16:44:08;2.60;;;1.13;;
41635;SDS011;27623;51.966;4.602;2023-07-29T16:46:36;7.28;;;1.40;;
41635;SDS011;27623;51.966;4.602;2023-07-29T16:49:01;5.15;;;1.23;;
41635;SDS011;27623;51.966;4.602;2023-07-29T16:51:29;5.38;;;1.80;;
41635;SDS011;27623;51.966;4.602;2023-07-29T16:53:54;6.63;;;1.55;;
41635;SDS011;27623;51.966;4.602;2023-07-29T16:56:22;6.50;;;1.80;;
41635;SDS011;27623;51.966;4.602;2023-07-29T16:58:48;8.40;;;1.90;;